createdAt,value
2023-04-13T00:00:48.698Z,7.20
2023-04-13T00:03:17.897Z,7.20
2023-04-13T00:05:46.468Z,7.20
2023-04-13T00:08:13.559Z,7.20
2023-04-13T00:10:43.193Z,7.20
2023-04-13T00:13:10.874Z,7.20
2023-04-13T00:15:41.861Z,7.20
2023-04-13T00:18:09.017Z,7.20
2023-04-13T00:20:35.931Z,7.20
2023-04-13T00:23:02.874Z,7.20
2023-04-13T00:25:30.578Z,7.20
2023-04-13T00:27:57.619Z,7.20
2023-04-13T00:30:24.711Z,7.20
2023-04-13T00:32:52.090Z,7.20
2023-04-13T00:35:24.674Z,7.20
2023-04-13T00:37:52.557Z,7.20
2023-04-13T00:40:19.815Z,7.20
2023-04-13T00:42:47.828Z,7.20
2023-04-13T00:45:15.680Z,7.20
2023-04-13T00:47:43.445Z,7.20
2023-04-13T00:50:10.382Z,7.20
2023-04-13T00:52:41.004Z,7.20
2023-04-13T00:55:08.121Z,7.20
2023-04-13T00:57:35.336Z,7.20
2023-04-13T01:00:12.874Z,7.20
2023-04-13T01:02:42.906Z,7.10
2023-04-13T01:05:12.609Z,7.10
2023-04-13T01:08:04.233Z,7.10
2023-04-13T01:10:43.296Z,7.10
2023-04-13T01:13:22.449Z,7.10
2023-04-13T01:16:12.082Z,7.10
2023-04-13T01:18:40.449Z,7.00
2023-04-13T01:21:12.051Z,7.10
2023-04-13T01:23:50.152Z,7.00
2023-04-13T01:26:17.337Z,7.00
2023-04-13T01:28:45.225Z,7.00
2023-04-13T01:31:12.608Z,7.00
2023-04-13T01:33:40.634Z,7.00
2023-04-13T01:36:09.156Z,7.00
2023-04-13T01:38:36.772Z,7.00
2023-04-13T01:41:03.766Z,7.00
2023-04-13T01:43:30.787Z,7.00
2023-04-13T01:46:10.274Z,7.00
2023-04-13T01:48:51.067Z,7.00
2023-04-13T01:51:32.219Z,7.00
2023-04-13T01:53:59.454Z,7.00
2023-04-13T01:56:26.723Z,7.00
2023-04-13T01:58:58.753Z,7.00
2023-04-13T02:01:26.753Z,7.00
2023-04-13T02:03:53.834Z,7.00
2023-04-13T02:06:20.902Z,7.00
2023-04-13T02:08:50.064Z,7.00
2023-04-13T02:11:17.933Z,7.00
2023-04-13T02:13:44.698Z,7.00
2023-04-13T02:16:11.478Z,7.00
2023-04-13T02:18:38.755Z,7.00
2023-04-13T02:21:11.186Z,7.00
2023-04-13T02:23:40.556Z,7.00
2023-04-13T02:26:14.693Z,7.00
2023-04-13T02:28:41.754Z,7.00
2023-04-13T02:31:08.600Z,6.90
2023-04-13T02:33:36.415Z,6.90
2023-04-13T02:36:04.143Z,6.90
2023-04-13T02:38:31.984Z,6.90
2023-04-13T02:40:59.508Z,6.90
2023-04-13T02:43:26.643Z,6.80
2023-04-13T02:45:53.505Z,6.90
2023-04-13T02:48:20.646Z,6.80
2023-04-13T02:50:47.916Z,6.80
2023-04-13T02:53:15.593Z,6.80
2023-04-13T02:55:43.048Z,6.70
2023-04-13T02:58:10.662Z,6.70
2023-04-13T03:00:38.644Z,6.70
2023-04-13T03:03:06.851Z,6.60
2023-04-13T03:05:33.873Z,6.60
2023-04-13T03:08:00.813Z,6.60
2023-04-13T03:10:28.323Z,6.60
2023-04-13T03:12:55.108Z,6.60
2023-04-13T03:15:21.992Z,6.60
2023-04-13T03:17:48.982Z,6.50
2023-04-13T03:20:16.975Z,6.50
2023-04-13T03:22:45.213Z,6.50
2023-04-13T03:25:12.675Z,6.50
2023-04-13T03:27:39.584Z,6.50
2023-04-13T03:30:07.695Z,6.50
2023-04-13T03:32:34.708Z,6.50
2023-04-13T03:35:01.583Z,6.40
2023-04-13T03:37:30.423Z,6.50
2023-04-13T03:39:58.547Z,6.40
2023-04-13T03:42:25.305Z,6.40
2023-04-13T03:44:52.537Z,6.40
2023-04-13T03:47:19.763Z,6.30
2023-04-13T03:49:46.873Z,6.30
2023-04-13T03:52:13.647Z,6.40
2023-04-13T03:54:40.511Z,6.30
2023-04-13T03:57:07.548Z,6.30
2023-04-13T03:59:34.417Z,6.20
2023-04-13T04:02:03.055Z,6.20
2023-04-13T04:04:30.116Z,6.20
2023-04-13T04:06:58.012Z,6.20
2023-04-13T04:09:25.427Z,6.20
2023-04-13T04:11:52.244Z,6.20
2023-04-13T04:14:19.479Z,6.20
2023-04-13T04:16:46.363Z,6.20
2023-04-13T04:19:13.358Z,6.20
2023-04-13T04:21:46.745Z,6.20
2023-04-13T04:24:23.487Z,6.20
2023-04-13T04:26:50.778Z,6.20
2023-04-13T04:29:22.079Z,6.20
2023-04-13T04:31:53.620Z,6.30
2023-04-13T04:34:20.753Z,6.30
2023-04-13T04:36:51.844Z,6.30
2023-04-13T04:39:22.647Z,6.30
2023-04-13T04:41:55.502Z,6.30
2023-04-13T04:44:25.685Z,6.30
2023-04-13T04:46:52.742Z,6.30
2023-04-13T04:49:21.790Z,6.30
2023-04-13T04:51:49.615Z,6.20
2023-04-13T04:54:20.139Z,6.30
2023-04-13T04:56:47.938Z,6.30
2023-04-13T04:59:14.779Z,6.20
2023-04-13T05:01:43.253Z,6.20
2023-04-13T05:04:10.746Z,6.20
2023-04-13T05:06:41.085Z,6.20
2023-04-13T05:09:08.901Z,6.30
2023-04-13T05:11:35.933Z,6.30
2023-04-13T05:14:02.710Z,6.30
2023-04-13T05:16:30.547Z,6.30
2023-04-13T05:18:57.853Z,6.30
2023-04-13T05:21:24.917Z,6.30
2023-04-13T05:23:51.874Z,6.40
2023-04-13T05:26:20.432Z,6.40
2023-04-13T05:28:47.208Z,6.40
2023-04-13T05:31:15.784Z,6.40
2023-04-13T05:33:42.606Z,6.40
2023-04-13T05:36:09.836Z,6.50
2023-04-13T05:38:36.596Z,6.50
2023-04-13T05:41:03.489Z,6.50
2023-04-13T05:43:30.567Z,6.50
2023-04-13T05:45:57.363Z,6.50
2023-04-13T05:48:24.560Z,6.60
2023-04-13T05:50:51.443Z,6.60
2023-04-13T05:53:18.486Z,6.60
2023-04-13T05:55:47.402Z,6.60
2023-04-13T05:58:15.024Z,6.70
2023-04-13T06:00:43.055Z,6.70
2023-04-13T06:03:10.977Z,6.70
2023-04-13T06:05:39.016Z,6.70
2023-04-13T06:08:05.791Z,6.70
2023-04-13T06:10:32.645Z,6.70
2023-04-13T06:12:59.388Z,6.70
2023-04-13T06:15:26.237Z,6.70
2023-04-13T06:17:53.430Z,6.80
2023-04-13T06:20:21.540Z,6.80
2023-04-13T06:22:48.633Z,6.90
2023-04-13T06:25:16.715Z,6.90
2023-04-13T06:27:44.220Z,6.80
2023-04-13T06:30:12.205Z,6.90
2023-04-13T06:32:39.190Z,7.00
2023-04-13T06:35:06.771Z,6.90
2023-04-13T06:37:35.759Z,7.00
2023-04-13T06:40:23.188Z,7.00
2023-04-13T06:42:49.963Z,7.00
2023-04-13T06:45:16.918Z,7.00
2023-04-13T06:47:43.865Z,7.00
2023-04-13T06:50:13.849Z,7.10
2023-04-13T06:52:43.070Z,7.00
2023-04-13T06:55:09.925Z,7.20
2023-04-13T06:57:36.661Z,7.20
2023-04-13T07:00:12.641Z,7.10
2023-04-13T07:02:49.207Z,7.20
2023-04-13T07:05:16.598Z,7.20
2023-04-13T07:07:43.377Z,7.20
2023-04-13T07:10:10.581Z,7.30
2023-04-13T07:12:37.394Z,7.30
2023-04-13T07:15:04.584Z,7.30
2023-04-13T07:17:31.502Z,7.30
2023-04-13T07:19:58.309Z,7.30
2023-04-13T07:22:25.106Z,7.40
2023-04-13T07:24:51.873Z,7.40
2023-04-13T07:27:18.632Z,7.50
2023-04-13T07:29:45.474Z,7.50
2023-04-13T07:32:12.454Z,7.60
2023-04-13T07:34:39.261Z,7.60
2023-04-13T07:37:06.202Z,7.70
2023-04-13T07:39:33.320Z,7.70
2023-04-13T07:42:00.167Z,7.80
2023-04-13T07:44:27.206Z,7.80
2023-04-13T07:46:57.258Z,7.90
2023-04-13T07:49:24.028Z,7.90
2023-04-13T07:51:52.525Z,7.90
2023-04-13T07:54:19.309Z,8.00
2023-04-13T07:56:46.074Z,8.10
2023-04-13T07:59:13.978Z,8.00
2023-04-13T08:01:40.851Z,8.10
2023-04-13T08:04:07.866Z,8.10
2023-04-13T08:06:34.928Z,8.20
2023-04-13T08:09:01.949Z,8.30
2023-04-13T08:11:28.679Z,8.30
2023-04-13T08:13:55.529Z,8.40
2023-04-13T08:16:22.305Z,8.50
2023-04-13T08:18:49.113Z,8.50
2023-04-13T08:21:15.914Z,8.50
2023-04-13T08:23:42.875Z,8.50
2023-04-13T08:26:20.381Z,8.50
2023-04-13T08:28:50.963Z,8.60
2023-04-13T08:31:17.716Z,8.70
2023-04-13T08:33:44.549Z,8.80
2023-04-13T08:36:11.613Z,8.80
2023-04-13T08:38:38.383Z,9.00
2023-04-13T08:41:05.710Z,9.10
2023-04-13T08:43:38.560Z,9.10
2023-04-13T08:46:06.550Z,9.10
2023-04-13T08:48:46.151Z,9.00
2023-04-13T08:51:22.089Z,9.10
2023-04-13T08:53:49.379Z,9.00
2023-04-13T08:56:16.726Z,9.00
2023-04-13T08:58:44.056Z,9.10
2023-04-13T09:01:14.079Z,9.20
2023-04-13T09:03:50.313Z,9.10
2023-04-13T09:06:32.987Z,9.10
2023-04-13T09:09:01.443Z,9.20
2023-04-13T09:11:28.411Z,9.20
2023-04-13T09:13:55.289Z,9.20
2023-04-13T09:16:22.651Z,9.20
2023-04-13T09:18:56.234Z,9.20
2023-04-13T09:21:39.145Z,9.30
2023-04-13T09:24:07.330Z,9.30
2023-04-13T09:26:48.200Z,9.30
2023-04-13T09:29:16.830Z,9.30
2023-04-13T09:31:45.666Z,9.40
2023-04-13T09:34:13.642Z,9.40
2023-04-13T09:36:53.309Z,9.40
2023-04-13T09:39:28.145Z,9.40
2023-04-13T09:41:55.956Z,9.40
2023-04-13T09:44:28.759Z,9.60
2023-04-13T09:47:07.408Z,9.80
2023-04-13T09:49:41.259Z,9.90
2023-04-13T09:52:19.302Z,10.10
2023-04-13T09:54:55.980Z,10.20
2023-04-13T09:57:27.255Z,10.30
2023-04-13T09:59:55.543Z,10.40
2023-04-13T10:02:22.827Z,10.60
2023-04-13T10:04:50.026Z,10.60
2023-04-13T10:07:16.958Z,10.70
2023-04-13T10:09:44.320Z,10.90
2023-04-13T10:12:12.158Z,10.90
2023-04-13T10:14:40.284Z,10.80
2023-04-13T10:17:29.287Z,10.70
2023-04-13T10:20:00.406Z,10.70
2023-04-13T10:22:28.551Z,10.70
2023-04-13T10:24:55.414Z,10.90
2023-04-13T10:27:23.514Z,10.90
2023-04-13T10:29:50.466Z,10.90
2023-04-13T10:32:25.252Z,10.90
2023-04-13T10:34:53.252Z,10.80
2023-04-13T10:37:27.417Z,10.70
2023-04-13T10:40:10.254Z,10.60
2023-04-13T10:45:18.782Z,11.00
2023-04-13T10:47:45.609Z,11.00
2023-04-13T10:50:23.328Z,11.10
2023-04-13T10:52:59.306Z,11.10
2023-04-13T10:55:27.392Z,11.10
2023-04-13T10:57:58.358Z,11.10
2023-04-13T11:00:38.444Z,11.20
2023-04-13T11:03:11.437Z,11.30
2023-04-13T11:05:38.560Z,11.30
2023-04-13T11:08:05.820Z,11.40
2023-04-13T11:10:32.580Z,11.60
2023-04-13T11:12:59.388Z,11.80
2023-04-13T11:15:30.817Z,11.90
2023-04-13T11:17:59.628Z,11.90
2023-04-13T11:20:34.252Z,11.90
2023-04-13T11:23:04.071Z,11.80
2023-04-13T11:25:30.900Z,11.90
2023-04-13T11:28:03.468Z,12.00
2023-04-13T11:30:32.506Z,12.10
2023-04-13T11:33:01.064Z,12.30
2023-04-13T11:35:28.092Z,12.40
2023-04-13T11:37:56.107Z,12.50
2023-04-13T11:40:25.664Z,12.60
2023-04-13T11:42:55.020Z,12.60
2023-04-13T11:45:25.836Z,12.30
2023-04-13T11:47:53.713Z,12.40
2023-04-13T11:50:21.545Z,12.60
2023-04-13T11:52:50.314Z,12.60
2023-04-13T11:55:23.459Z,12.70
2023-04-13T11:57:52.890Z,12.60
2023-04-13T12:00:27.265Z,12.50
2023-04-13T12:05:26.195Z,12.90
2023-04-13T12:07:54.858Z,12.90
2023-04-13T12:10:40.267Z,12.90
2023-04-13T12:16:02.263Z,13.30
2023-04-13T12:18:37.305Z,13.40
2023-04-13T12:21:06.097Z,13.60
2023-04-13T12:23:33.143Z,13.40
2023-04-13T12:26:18.786Z,13.20
2023-04-13T12:28:54.859Z,13.20
2023-04-13T12:31:21.639Z,13.30
2023-04-13T12:33:48.644Z,13.40
2023-04-13T12:36:16.641Z,13.60
2023-04-13T12:38:43.773Z,13.80
2023-04-13T12:41:12.070Z,13.90
2023-04-13T12:43:38.900Z,14.00
2023-04-13T12:46:05.867Z,14.20
2023-04-13T12:48:32.698Z,14.30
2023-04-13T12:50:59.438Z,14.30
2023-04-13T12:53:26.366Z,14.40
2023-04-13T12:55:53.177Z,14.60
2023-04-13T12:58:20.103Z,14.70
2023-04-13T13:00:46.928Z,14.80
2023-04-13T13:03:14.921Z,14.90
2023-04-13T13:05:42.365Z,15.00
2023-04-13T13:08:09.401Z,15.20
2023-04-13T13:10:37.345Z,15.10
2023-04-13T13:13:04.290Z,15.30
2023-04-13T13:15:31.789Z,15.50
2023-04-13T13:18:00.942Z,15.60
2023-04-13T13:20:27.726Z,15.50
2023-04-13T13:22:54.648Z,15.60
2023-04-13T13:25:21.809Z,15.70
2023-04-13T13:30:18.410Z,16.10
2023-04-13T13:32:45.236Z,16.20
2023-04-13T13:35:12.088Z,16.10
2023-04-13T13:37:39.766Z,16.20
2023-04-13T13:40:13.033Z,16.20
2023-04-13T13:42:51.406Z,16.10
2023-04-13T13:45:19.005Z,16.00
2023-04-13T13:47:49.922Z,16.10
2023-04-13T13:50:16.835Z,16.20
2023-04-13T13:52:55.322Z,16.50
2023-04-13T13:55:28.893Z,16.60
2023-04-13T13:57:55.735Z,16.70
2023-04-13T14:00:23.451Z,16.80
2023-04-13T14:02:50.570Z,17.00
2023-04-13T14:05:17.704Z,17.20
2023-04-13T14:07:45.125Z,16.80
2023-04-13T14:10:12.746Z,16.90
2023-04-13T14:12:44.467Z,17.00
2023-04-13T14:15:12.382Z,16.70
2023-04-13T14:17:39.921Z,16.50
2023-04-13T14:20:11.797Z,16.50
2023-04-13T14:22:39.801Z,16.90
2023-04-13T14:25:07.631Z,17.40
2023-04-13T14:27:34.572Z,17.50
2023-04-13T14:30:04.451Z,17.70
2023-04-13T14:32:32.083Z,17.60
2023-04-13T14:35:00.096Z,17.60
2023-04-13T14:37:27.992Z,17.50
2023-04-13T14:39:55.374Z,17.30
2023-04-13T14:42:24.249Z,17.30
2023-04-13T14:44:51.981Z,17.50
2023-04-13T14:47:19.665Z,17.80
2023-04-13T14:49:47.391Z,17.90
2023-04-13T14:52:14.843Z,18.10
2023-04-13T14:54:42.256Z,18.20
2023-04-13T14:57:10.529Z,18.30
2023-04-13T14:59:37.476Z,18.40
2023-04-13T15:02:04.846Z,18.50
2023-04-13T15:04:32.317Z,18.60
2023-04-13T15:07:00.312Z,18.60
2023-04-13T15:09:27.423Z,18.40
2023-04-13T15:11:54.238Z,18.40
2023-04-13T15:14:21.547Z,18.50
2023-04-13T15:16:48.487Z,18.40
2023-04-13T15:19:15.561Z,18.50
2023-04-13T15:21:42.380Z,18.70
2023-04-13T15:24:11.471Z,19.00
2023-04-13T15:26:41.008Z,19.20
2023-04-13T15:29:08.669Z,19.00
2023-04-13T15:31:37.269Z,18.90
2023-04-13T15:34:08.721Z,19.00
2023-04-13T15:36:38.447Z,19.10
2023-04-13T15:39:05.415Z,19.20
2023-04-13T15:41:32.300Z,18.70
2023-04-13T15:44:00.323Z,18.20
2023-04-13T15:46:27.601Z,18.00
2023-04-13T15:48:55.230Z,18.30
2023-04-13T15:51:22.322Z,18.30
2023-04-13T15:53:49.215Z,18.60
2023-04-13T15:56:16.120Z,18.90
2023-04-13T15:58:42.980Z,19.10
2023-04-13T16:01:13.242Z,19.10
2023-04-13T16:03:40.423Z,19.00
2023-04-13T16:06:07.849Z,19.40
2023-04-13T16:08:35.223Z,19.30
2023-04-13T16:11:02.046Z,19.40
2023-04-13T16:13:47.332Z,19.40
2023-04-13T16:16:15.404Z,19.20
2023-04-13T16:18:42.272Z,18.70
2023-04-13T16:21:10.931Z,18.80
2023-04-13T16:23:38.302Z,18.70
2023-04-13T16:26:05.220Z,18.90
2023-04-13T16:28:32.022Z,19.10
2023-04-13T16:30:59.109Z,19.20
2023-04-13T16:33:26.064Z,19.00
2023-04-13T16:35:52.901Z,18.90
2023-04-13T16:38:19.707Z,19.30
2023-04-13T16:40:46.922Z,19.50
2023-04-13T16:43:13.705Z,19.60
2023-04-13T16:45:40.690Z,19.10
2023-04-13T16:48:08.010Z,18.90
2023-04-13T16:50:34.859Z,18.60
2023-04-13T16:53:01.658Z,18.20
2023-04-13T16:55:28.739Z,18.20
2023-04-13T16:57:55.932Z,18.00
2023-04-13T17:00:23.245Z,17.70
2023-04-13T17:02:50.415Z,17.80
2023-04-13T17:05:17.441Z,18.10
2023-04-13T17:07:46.795Z,18.00
2023-04-13T17:10:14.320Z,17.90
2023-04-13T17:12:41.332Z,17.90
2023-04-13T17:15:09.528Z,18.20
2023-04-13T17:17:38.052Z,18.00
2023-04-13T17:20:06.070Z,17.60
2023-04-13T17:22:33.028Z,17.50
2023-04-13T17:24:59.898Z,17.70
2023-04-13T17:27:26.699Z,17.70
2023-04-13T17:29:53.444Z,17.50
2023-04-13T17:32:21.843Z,17.20
2023-04-13T17:34:49.603Z,17.40
2023-04-13T17:37:17.869Z,17.60
2023-04-13T17:39:49.549Z,17.80
2023-04-13T17:42:16.806Z,17.50
2023-04-13T17:44:44.009Z,17.10
2023-04-13T17:47:10.896Z,16.60
2023-04-13T17:49:38.391Z,16.40
2023-04-13T17:52:05.364Z,16.40
2023-04-13T17:54:32.674Z,16.20
2023-04-13T17:56:59.447Z,15.90
2023-04-13T17:59:26.219Z,15.70
2023-04-13T18:01:53.266Z,15.50
2023-04-13T18:04:20.435Z,15.40
2023-04-13T18:06:47.627Z,15.50
2023-04-13T18:09:14.406Z,15.80
2023-04-13T18:11:41.357Z,15.90
2023-04-13T18:14:09.155Z,15.50
2023-04-13T18:16:36.605Z,15.50
2023-04-13T18:19:04.021Z,15.70
2023-04-13T18:21:32.245Z,15.80
2023-04-13T18:24:02.472Z,15.90
2023-04-13T18:26:29.980Z,15.50
2023-04-13T18:28:56.912Z,15.30
2023-04-13T18:31:23.871Z,15.30
2023-04-13T18:33:50.702Z,15.20
2023-04-13T18:36:18.467Z,15.00
2023-04-13T18:38:45.616Z,14.70
2023-04-13T18:41:13.011Z,14.80
2023-04-13T18:43:39.992Z,14.80
2023-04-13T18:46:07.958Z,14.70
2023-04-13T18:48:35.716Z,14.60
2023-04-13T18:51:03.458Z,14.60
2023-04-13T18:53:31.009Z,14.70
2023-04-13T18:55:58.660Z,14.60
2023-04-13T18:58:26.519Z,14.50
2023-04-13T19:00:53.450Z,14.40
2023-04-13T19:03:20.614Z,14.20
2023-04-13T19:05:47.544Z,13.80
2023-04-13T19:08:15.640Z,14.00
2023-04-13T19:10:42.944Z,14.10
2023-04-13T19:13:10.113Z,14.20
2023-04-13T19:15:37.221Z,14.10
2023-04-13T19:18:04.580Z,14.10
2023-04-13T19:20:31.688Z,14.00
2023-04-13T19:22:58.684Z,13.80
2023-04-13T19:25:25.769Z,13.60
2023-04-13T19:27:52.636Z,13.70
2023-04-13T19:30:19.847Z,13.80
2023-04-13T19:32:48.318Z,13.70
2023-04-13T19:35:15.372Z,13.40
2023-04-13T19:37:42.285Z,13.50
2023-04-13T19:40:10.088Z,13.30
2023-04-13T19:42:37.292Z,13.20
2023-04-13T19:45:05.052Z,13.10
2023-04-13T19:47:32.278Z,12.80
2023-04-13T19:49:59.759Z,12.70
2023-04-13T19:52:26.655Z,12.70
2023-04-13T19:54:53.692Z,12.60
2023-04-13T19:57:20.519Z,12.60
2023-04-13T19:59:47.322Z,12.70
2023-04-13T20:02:14.196Z,12.60
2023-04-13T20:04:41.373Z,12.50
2023-04-13T20:07:08.273Z,12.40
2023-04-13T20:09:35.071Z,12.50
2023-04-13T20:12:01.951Z,12.60
2023-04-13T20:14:28.797Z,12.50
2023-04-13T20:16:55.657Z,12.40
2023-04-13T20:19:24.316Z,12.30
2023-04-13T20:21:51.554Z,12.40
2023-04-13T20:24:18.792Z,12.30
2023-04-13T20:26:46.928Z,12.30
2023-04-13T20:29:16.680Z,12.30
2023-04-13T20:31:43.476Z,12.10
2023-04-13T20:34:13.481Z,12.00
2023-04-13T20:36:40.556Z,12.00
2023-04-13T20:39:09.602Z,11.90
2023-04-13T20:41:36.794Z,11.80
2023-04-13T20:44:03.984Z,11.70
2023-04-13T20:46:34.764Z,11.60
2023-04-13T20:49:04.275Z,11.40
2023-04-13T20:51:31.319Z,11.20
2023-04-13T20:53:58.684Z,11.10
2023-04-13T20:56:26.430Z,11.00
2023-04-13T20:58:57.892Z,11.00
2023-04-13T21:01:25.355Z,10.90
2023-04-13T21:03:52.846Z,10.90
2023-04-13T21:06:20.030Z,11.00
2023-04-13T21:08:46.808Z,11.00
2023-04-13T21:11:13.635Z,10.80
2023-04-13T21:13:40.470Z,10.70
2023-04-13T21:16:09.087Z,10.60
2023-04-13T21:18:36.773Z,10.60
2023-04-13T21:21:06.140Z,10.40
2023-04-13T21:23:33.035Z,10.50
2023-04-13T21:25:59.828Z,10.50
2023-04-13T21:28:26.561Z,10.30
2023-04-13T21:30:53.523Z,10.20
2023-04-13T21:33:20.482Z,10.20
2023-04-13T21:35:47.374Z,10.10
2023-04-13T21:38:14.205Z,10.10
2023-04-13T21:40:41.032Z,10.00
2023-04-13T21:43:07.821Z,10.00
2023-04-13T21:45:34.875Z,9.90
2023-04-13T21:48:01.699Z,9.80
2023-04-13T21:50:28.487Z,9.70
2023-04-13T21:52:56.049Z,9.70
2023-04-13T21:55:22.773Z,9.70
2023-04-13T21:57:49.621Z,9.60
2023-04-13T22:00:19.674Z,9.50
2023-04-13T22:02:46.709Z,9.50
2023-04-13T22:05:13.649Z,9.50
2023-04-13T22:07:43.394Z,9.60
2023-04-13T22:10:11.399Z,9.40
2023-04-13T22:12:38.461Z,9.30
2023-04-13T22:15:06.176Z,9.30
2023-04-13T22:17:33.468Z,9.20
2023-04-13T22:20:00.630Z,9.20
2023-04-13T22:22:27.444Z,9.20
2023-04-13T22:24:54.261Z,9.20
2023-04-13T22:27:21.197Z,9.10
2023-04-13T22:29:47.943Z,9.10
2023-04-13T22:32:15.058Z,9.10
2023-04-13T22:34:41.965Z,9.10
2023-04-13T22:37:10.428Z,9.10
2023-04-13T22:39:37.450Z,8.90
2023-04-13T22:42:04.432Z,8.90
2023-04-13T22:44:34.935Z,9.00
2023-04-13T22:47:02.505Z,9.00
2023-04-13T22:49:30.717Z,8.90
2023-04-13T22:51:57.531Z,8.90
2023-04-13T22:54:24.368Z,8.80
2023-04-13T22:56:51.382Z,8.80
2023-04-13T22:59:18.410Z,8.70
2023-04-13T23:01:45.262Z,8.60
2023-04-13T23:04:15.036Z,8.40
2023-04-13T23:06:42.806Z,8.40
2023-04-13T23:09:09.531Z,8.30
2023-04-13T23:11:36.530Z,8.20
2023-04-13T23:14:03.918Z,8.10
2023-04-13T23:16:30.969Z,8.10
2023-04-13T23:18:58.046Z,8.10
2023-04-13T23:21:25.021Z,8.10
2023-04-13T23:23:51.808Z,8.00
2023-04-13T23:26:18.613Z,8.00
2023-04-13T23:28:48.126Z,8.00
2023-04-13T23:31:14.998Z,7.90
2023-04-13T23:33:41.738Z,7.90
2023-04-13T23:36:09.071Z,7.80
2023-04-13T23:38:36.261Z,7.80
2023-04-13T23:41:03.165Z,7.80
2023-04-13T23:43:29.905Z,7.70
2023-04-13T23:45:57.264Z,7.60
2023-04-13T23:48:25.398Z,7.60
2023-04-13T23:50:52.706Z,7.50
2023-04-13T23:53:22.255Z,7.50
2023-04-13T23:55:49.120Z,7.40
2023-04-13T23:58:15.968Z,7.40
